createdAt,value
2023-01-25T00:01:34.120Z,98184.97
2023-01-25T00:04:00.756Z,98188.88
2023-01-25T00:06:27.553Z,98182.91
2023-01-25T00:08:54.152Z,98191.66
2023-01-25T00:11:20.791Z,98199.63
2023-01-25T00:13:47.406Z,98184.69
2023-01-25T00:16:14.118Z,98186.78
2023-01-25T00:18:40.771Z,98186.34
2023-01-25T00:21:21.704Z,98192.25
2023-01-25T00:23:48.488Z,98187.63
2023-01-25T00:26:15.684Z,98182.03
2023-01-25T00:28:42.516Z,98181.78
2023-01-25T00:31:11.450Z,98175.03
2023-01-25T00:33:37.937Z,98170.97
2023-01-25T00:36:23.252Z,98163.56
2023-01-25T00:38:49.989Z,98160.22
2023-01-25T00:41:16.634Z,98164.00
2023-01-25T00:43:43.295Z,98164.69
2023-01-25T00:46:09.988Z,98150.47
2023-01-25T00:48:36.723Z,98162.06
2023-01-25T00:51:03.410Z,98162.19
2023-01-25T00:53:30.173Z,98161.94
2023-01-25T00:55:56.828Z,98161.25
2023-01-25T00:58:23.580Z,98158.59
2023-01-25T01:00:50.266Z,98159.28
2023-01-25T01:03:16.912Z,98155.53
2023-01-25T01:05:43.703Z,98158.31
2023-01-25T01:08:10.545Z,98155.94
2023-01-25T01:10:37.224Z,98153.41
2023-01-25T01:13:03.932Z,98153.56
2023-01-25T01:15:30.650Z,98155.81
2023-01-25T01:17:57.355Z,98149.53
2023-01-25T01:20:24.062Z,98143.22
2023-01-25T01:22:52.584Z,98145.34
2023-01-25T01:25:19.381Z,98138.06
2023-01-25T01:27:46.018Z,98147.16
2023-01-25T01:30:12.993Z,98146.31
2023-01-25T01:32:39.724Z,98142.00
2023-01-25T01:35:07.346Z,98137.94
2023-01-25T01:37:34.159Z,98144.22
2023-01-25T01:40:02.001Z,98138.22
2023-01-25T01:42:28.615Z,98141.84
2023-01-25T01:44:55.369Z,98143.22
2023-01-25T01:47:22.659Z,98131.78
2023-01-25T01:49:54.283Z,98135.41
2023-01-25T01:52:23.719Z,98140.28
2023-01-25T01:55:12.288Z,98137.38
2023-01-25T01:57:47.488Z,98143.50
2023-01-25T02:00:17.103Z,98140.72
2023-01-25T02:02:43.877Z,98141.84
2023-01-25T02:05:25.556Z,98140.88
2023-01-25T02:07:52.261Z,98138.22
2023-01-25T02:10:18.968Z,98133.19
2023-01-25T02:12:45.797Z,98139.63
2023-01-25T02:15:12.547Z,98139.72
2023-01-25T02:17:39.498Z,98133.72
2023-01-25T02:20:29.230Z,98140.47
2023-01-25T02:23:24.136Z,98138.50
2023-01-25T02:25:50.789Z,98126.34
2023-01-25T02:28:23.486Z,98121.88
2023-01-25T02:30:50.197Z,98127.88
2023-01-25T02:33:16.870Z,98117.69
2023-01-25T02:35:48.415Z,98112.06
2023-01-25T02:38:16.108Z,98112.50
2023-01-25T02:40:59.241Z,98104.44
2023-01-25T02:43:28.352Z,98093.06
2023-01-25T02:46:07.928Z,98082.63
2023-01-25T02:48:34.617Z,98076.91
2023-01-25T02:51:01.240Z,98069.34
2023-01-25T02:53:27.874Z,98061.72
2023-01-25T02:55:54.607Z,98055.88
2023-01-25T02:58:21.202Z,98045.00
2023-01-25T03:00:47.812Z,98040.91
2023-01-25T03:03:14.573Z,98051.38
2023-01-25T03:05:41.177Z,98050.41
2023-01-25T03:08:07.911Z,98050.31
2023-01-25T03:10:34.573Z,98055.47
2023-01-25T03:13:01.207Z,98051.28
2023-01-25T03:15:27.861Z,98065.38
2023-01-25T03:17:55.904Z,98068.56
2023-01-25T03:20:22.740Z,98068.13
2023-01-25T03:22:49.398Z,98068.97
2023-01-25T03:25:16.141Z,98070.06
2023-01-25T03:27:42.780Z,98073.41
2023-01-25T03:30:11.140Z,98073.97
2023-01-25T03:32:37.759Z,98071.97
2023-01-25T03:35:04.985Z,98077.16
2023-01-25T03:37:31.663Z,98071.72
2023-01-25T03:39:58.323Z,98052.41
2023-01-25T03:42:24.948Z,98060.84
2023-01-25T03:44:51.555Z,98061.53
2023-01-25T03:47:18.283Z,98053.31
2023-01-25T03:49:44.956Z,98047.69
2023-01-25T03:52:11.706Z,98042.09
2023-01-25T03:54:38.361Z,98042.69
2023-01-25T03:57:05.016Z,98031.09
2023-01-25T03:59:31.711Z,98029.47
2023-01-25T04:01:58.367Z,98045.50
2023-01-25T04:04:25.011Z,98044.16
2023-01-25T04:06:51.671Z,98036.72
2023-01-25T04:09:18.301Z,98034.94
2023-01-25T04:11:44.908Z,98056.16
2023-01-25T04:14:11.534Z,98061.47
2023-01-25T04:16:38.210Z,98054.50
2023-01-25T04:19:04.878Z,98035.09
2023-01-25T04:21:33.776Z,98044.16
2023-01-25T04:24:00.460Z,98046.69
2023-01-25T04:26:27.097Z,98052.13
2023-01-25T04:28:53.723Z,98046.94
2023-01-25T04:31:20.494Z,98035.13
2023-01-25T04:33:47.331Z,98033.44
2023-01-25T04:36:14.244Z,98030.78
2023-01-25T04:38:40.904Z,98034.69
2023-01-25T04:41:07.617Z,98034.69
2023-01-25T04:43:34.316Z,98028.28
2023-01-25T04:46:02.362Z,98017.94
2023-01-25T04:48:29.051Z,98016.69
2023-01-25T04:50:55.703Z,98022.72
2023-01-25T04:53:22.390Z,98025.91
2023-01-25T04:55:49.277Z,98020.34
2023-01-25T04:58:15.993Z,98029.53
2023-01-25T05:00:42.617Z,98034.97
2023-01-25T05:03:09.338Z,98031.78
2023-01-25T05:05:35.991Z,98029.38
2023-01-25T05:08:02.793Z,98032.72
2023-01-25T05:10:29.413Z,98029.13
2023-01-25T05:12:56.073Z,98017.41
2023-01-25T05:15:23.655Z,98008.47
2023-01-25T05:17:50.311Z,98010.16
2023-01-25T05:20:16.983Z,98003.16
2023-01-25T05:22:43.669Z,98010.28
2023-01-25T05:25:10.716Z,98012.38
2023-01-25T05:27:37.503Z,98011.97
2023-01-25T05:30:04.505Z,98010.84
2023-01-25T05:32:31.121Z,98009.03
2023-01-25T05:34:59.886Z,98010.84
2023-01-25T05:37:27.472Z,98007.78
2023-01-25T05:39:54.184Z,98012.53
2023-01-25T05:42:20.967Z,98014.47
2023-01-25T05:44:48.147Z,98011.00
2023-01-25T05:47:16.013Z,98012.22
2023-01-25T05:49:42.674Z,98008.34
2023-01-25T05:52:13.695Z,98000.41
2023-01-25T05:54:40.317Z,98002.75
2023-01-25T05:57:07.926Z,98011.94
2023-01-25T05:59:34.532Z,98004.28
2023-01-25T06:02:01.340Z,98005.13
2023-01-25T06:04:28.009Z,98006.91
2023-01-25T06:06:54.660Z,98014.59
2023-01-25T06:09:21.296Z,98004.84
2023-01-25T06:11:48.013Z,98005.38
2023-01-25T06:14:14.690Z,98009.56
2023-01-25T06:16:41.383Z,98008.19
2023-01-25T06:19:08.160Z,98008.19
2023-01-25T06:21:34.831Z,98008.88
2023-01-25T06:24:01.542Z,98005.09
2023-01-25T06:26:28.177Z,98005.09
2023-01-25T06:28:54.802Z,98015.84
2023-01-25T06:31:21.515Z,98007.22
2023-01-25T06:33:49.449Z,98002.88
2023-01-25T06:36:17.003Z,97996.47
2023-01-25T06:38:43.640Z,97981.44
2023-01-25T06:41:12.175Z,97983.66
2023-01-25T06:43:39.029Z,97988.25
2023-01-25T06:46:07.254Z,97992.84
2023-01-25T06:48:34.007Z,97997.44
2023-01-25T06:51:02.045Z,98000.09
2023-01-25T06:53:30.479Z,97999.13
2023-01-25T06:56:10.920Z,97997.03
2023-01-25T06:58:38.445Z,97987.84
2023-01-25T07:01:13.145Z,97993.13
2023-01-25T07:03:39.847Z,97985.03
2023-01-25T07:06:07.614Z,97986.16
2023-01-25T07:08:34.400Z,97994.53
2023-01-25T07:11:05.322Z,97991.19
2023-01-25T07:13:32.277Z,97988.13
2023-01-25T07:16:03.765Z,97980.44
2023-01-25T07:18:30.826Z,97987.44
2023-01-25T07:21:09.716Z,97981.44
2023-01-25T07:23:36.314Z,97970.41
2023-01-25T07:26:02.920Z,97978.63
2023-01-25T07:28:30.617Z,97968.47
2023-01-25T07:30:57.292Z,97968.31
2023-01-25T07:33:23.935Z,97973.59
2023-01-25T07:35:50.699Z,97980.31
2023-01-25T07:38:17.379Z,97982.66
2023-01-25T07:40:44.031Z,97982.13
2023-01-25T07:43:10.733Z,97981.97
2023-01-25T07:45:37.355Z,97980.16
2023-01-25T07:48:08.277Z,97971.94
2023-01-25T07:50:34.920Z,97973.06
2023-01-25T07:53:01.546Z,97966.22
2023-01-25T07:55:28.192Z,97979.88
2023-01-25T07:57:54.896Z,97980.00
2023-01-25T08:00:23.890Z,97977.66
2023-01-25T08:02:51.131Z,97975.25
2023-01-25T08:05:17.752Z,97973.53
2023-01-25T08:07:44.449Z,97969.75
2023-01-25T08:10:11.250Z,97959.84
2023-01-25T08:12:37.849Z,97957.31
2023-01-25T08:15:04.879Z,97959.94
2023-01-25T08:17:31.492Z,97956.94
2023-01-25T08:19:59.208Z,97967.25
2023-01-25T08:22:25.998Z,97953.94
2023-01-25T08:24:52.616Z,97963.81
2023-01-25T08:27:19.267Z,97966.31
2023-01-25T08:29:46.561Z,97968.91
2023-01-25T08:32:13.153Z,97958.34
2023-01-25T08:34:39.871Z,97956.84
2023-01-25T08:37:06.553Z,97952.19
2023-01-25T08:39:33.229Z,97949.72
2023-01-25T08:41:59.915Z,97935.13
2023-01-25T08:44:26.779Z,97942.09
2023-01-25T08:46:53.467Z,97952.06
2023-01-25T08:49:20.145Z,97941.50
2023-01-25T08:51:46.764Z,97941.03
2023-01-25T08:54:13.436Z,97941.38
2023-01-25T08:56:40.432Z,97945.94
2023-01-25T08:59:07.426Z,97938.00
2023-01-25T09:01:34.160Z,97934.47
2023-01-25T09:04:01.074Z,97940.38
2023-01-25T09:06:27.804Z,97927.78
2023-01-25T09:08:54.587Z,97929.00
2023-01-25T09:11:22.229Z,97921.41
2023-01-25T09:13:49.052Z,97927.47
2023-01-25T09:16:20.283Z,97927.34
2023-01-25T09:18:49.061Z,97926.69
2023-01-25T09:21:17.144Z,97925.53
2023-01-25T09:23:50.963Z,97921.13
2023-01-25T09:26:24.451Z,97921.94
2023-01-25T09:28:52.005Z,97914.03
2023-01-25T09:31:22.329Z,97918.84
2023-01-25T09:33:50.155Z,97916.69
2023-01-25T09:36:16.797Z,97918.75
2023-01-25T09:38:43.554Z,97915.63
2023-01-25T09:41:58.156Z,97919.09
2023-01-25T09:44:43.337Z,97912.31
2023-01-25T09:47:31.179Z,97909.56
2023-01-25T09:50:17.626Z,97910.75
2023-01-25T09:53:04.419Z,97910.28
2023-01-25T09:55:31.030Z,97903.81
2023-01-25T09:57:57.906Z,97903.28
2023-01-25T10:00:33.280Z,97908.59
2023-01-25T10:03:13.855Z,97902.56
2023-01-25T10:05:48.233Z,97899.81
2023-01-25T10:08:57.000Z,97893.25
2023-01-25T10:11:25.841Z,97901.19
2023-01-25T10:13:52.454Z,97901.22
2023-01-25T10:16:28.220Z,97891.28
2023-01-25T10:19:26.080Z,97885.19
2023-01-25T10:22:08.596Z,97882.78
2023-01-25T10:24:51.011Z,97883.78
2023-01-25T10:27:29.576Z,97887.00
2023-01-25T10:29:57.059Z,97879.50
2023-01-25T10:32:28.682Z,97873.56
2023-01-25T10:34:57.479Z,97870.19
2023-01-25T10:37:33.318Z,97867.53
2023-01-25T10:40:14.574Z,97866.03
2023-01-25T10:43:00.456Z,97862.03
2023-01-25T10:45:27.116Z,97858.53
2023-01-25T10:47:57.516Z,97862.53
2023-01-25T10:50:39.175Z,97852.84
2023-01-25T10:53:09.674Z,97851.38
2023-01-25T10:55:36.334Z,97840.34
2023-01-25T10:58:03.004Z,97837.22
2023-01-25T11:00:36.434Z,97834.03
2023-01-25T11:03:03.318Z,97826.50
2023-01-25T11:05:38.979Z,97823.38
2023-01-25T11:08:25.170Z,97826.19
2023-01-25T11:10:52.374Z,97824.53
2023-01-25T11:13:20.848Z,97823.91
2023-01-25T11:16:13.448Z,97822.66
2023-01-25T11:18:40.116Z,97820.16
2023-01-25T11:21:13.057Z,97815.22
2023-01-25T11:23:39.712Z,97821.88
2023-01-25T11:26:17.769Z,97822.53
2023-01-25T11:28:45.381Z,97811.53
2023-01-25T11:31:12.894Z,97804.53
2023-01-25T11:33:40.478Z,97800.75
2023-01-25T11:36:16.215Z,97804.72
2023-01-25T11:39:19.329Z,97798.72
2023-01-25T11:42:08.746Z,97802.34
2023-01-25T11:44:46.361Z,97785.88
2023-01-25T11:47:25.916Z,97785.25
2023-01-25T11:50:11.459Z,97784.53
2023-01-25T11:53:06.181Z,97775.91
2023-01-25T11:55:37.647Z,97774.56
2023-01-25T11:58:29.175Z,97777.03
2023-01-25T12:01:36.351Z,97766.69
2023-01-25T12:04:21.198Z,97769.34
2023-01-25T12:06:53.398Z,97756.59
2023-01-25T12:09:44.448Z,97749.94
2023-01-25T12:12:25.055Z,97754.09
2023-01-25T12:14:57.598Z,97744.25
2023-01-25T12:17:43.612Z,97732.44
2023-01-25T12:20:17.334Z,97739.56
2023-01-25T12:23:04.742Z,97725.94
2023-01-25T12:26:00.545Z,97731.91
2023-01-25T12:28:42.835Z,97726.75
2023-01-25T12:31:38.535Z,97724.56
2023-01-25T12:34:29.202Z,97718.91
2023-01-25T12:36:55.817Z,97714.22
2023-01-25T12:39:25.210Z,97712.09
2023-01-25T12:41:58.748Z,97706.63
2023-01-25T12:44:38.989Z,97702.97
2023-01-25T12:47:18.237Z,97701.00
2023-01-25T12:49:54.383Z,97696.66
2023-01-25T12:52:24.521Z,97692.84
2023-01-25T12:54:51.775Z,97691.00
2023-01-25T12:57:33.303Z,97700.44
2023-01-25T13:00:20.084Z,97687.59
2023-01-25T13:03:20.669Z,97685.22
2023-01-25T13:06:02.251Z,97681.03
2023-01-25T13:08:37.534Z,97682.59
2023-01-25T13:11:30.277Z,97682.59
2023-01-25T13:14:15.573Z,97671.53
2023-01-25T13:16:46.004Z,97673.88
2023-01-25T13:19:31.030Z,97670.22
2023-01-25T13:21:57.826Z,97667.50
2023-01-25T13:24:28.033Z,97667.16
2023-01-25T13:26:54.564Z,97672.41
2023-01-25T13:29:44.427Z,97658.31
2023-01-25T13:32:34.685Z,97662.03
2023-01-25T13:35:01.383Z,97657.78
2023-01-25T13:37:32.046Z,97645.97
2023-01-25T13:40:34.528Z,97654.63
2023-01-25T13:43:13.069Z,97646.91
2023-01-25T13:45:40.641Z,97649.88
2023-01-25T13:48:15.094Z,97650.41
2023-01-25T13:50:50.405Z,97643.53
2023-01-25T13:53:16.900Z,97645.03
2023-01-25T13:55:45.222Z,97640.38
2023-01-25T13:58:22.563Z,97643.19
2023-01-25T14:00:57.166Z,97642.38
2023-01-25T14:03:44.075Z,97637.22
2023-01-25T14:06:22.532Z,97649.72
2023-01-25T14:08:49.327Z,97641.06
2023-01-25T14:11:25.636Z,97637.41
2023-01-25T14:14:03.022Z,97634.66
2023-01-25T14:16:30.579Z,97642.00
2023-01-25T14:19:23.994Z,97641.16
2023-01-25T14:21:58.066Z,97635.03
2023-01-25T14:24:24.708Z,97637.56
2023-01-25T14:26:51.379Z,97632.69
2023-01-25T14:29:31.774Z,97639.66
2023-01-25T14:31:59.533Z,97644.31
2023-01-25T14:34:26.687Z,97641.16
2023-01-25T14:37:25.455Z,97637.66
2023-01-25T14:39:52.094Z,97643.31
2023-01-25T14:42:18.751Z,97641.00
2023-01-25T14:44:45.411Z,97637.50
2023-01-25T14:47:31.446Z,97645.31
2023-01-25T14:50:28.917Z,97633.31
2023-01-25T14:52:55.686Z,97631.00
2023-01-25T14:55:22.403Z,97636.50
2023-01-25T14:57:49.072Z,97635.38
2023-01-25T15:00:23.749Z,97638.72
2023-01-25T15:03:00.065Z,97635.91
2023-01-25T15:05:49.796Z,97635.25
2023-01-25T15:08:37.347Z,97633.25
2023-01-25T15:11:04.051Z,97624.44
2023-01-25T15:13:30.659Z,97622.13
2023-01-25T15:15:58.004Z,97624.94
2023-01-25T15:18:50.304Z,97616.00
2023-01-25T15:21:32.109Z,97619.47
2023-01-25T15:23:59.923Z,97606.81
2023-01-25T15:26:31.351Z,97618.78
2023-01-25T15:28:59.563Z,97620.63
2023-01-25T15:31:30.502Z,97615.97
2023-01-25T15:33:57.308Z,97610.66
2023-01-25T15:36:23.999Z,97608.81
2023-01-25T15:38:50.635Z,97607.47
2023-01-25T15:41:17.363Z,97616.94
2023-01-25T15:43:44.353Z,97608.50
2023-01-25T15:46:40.886Z,97595.69
2023-01-25T15:49:07.789Z,97602.84
2023-01-25T15:51:35.802Z,97603.16
2023-01-25T15:54:02.589Z,97601.66
2023-01-25T15:56:32.730Z,97599.31
2023-01-25T15:59:00.541Z,97598.47
2023-01-25T16:01:28.586Z,97589.00
2023-01-25T16:03:55.952Z,97587.50
2023-01-25T16:06:51.540Z,97583.38
2023-01-25T16:09:25.751Z,97586.19
2023-01-25T16:11:56.709Z,97585.16
2023-01-25T16:14:24.758Z,97580.50
2023-01-25T16:16:52.163Z,97578.16
2023-01-25T16:19:20.344Z,97569.19
2023-01-25T16:21:47.080Z,97569.53
2023-01-25T16:24:13.814Z,97573.22
2023-01-25T16:26:54.350Z,97569.53
2023-01-25T16:29:21.356Z,97564.72
2023-01-25T16:31:48.086Z,97569.72
2023-01-25T16:34:14.765Z,97569.00
2023-01-25T16:36:41.418Z,97571.19
2023-01-25T16:39:22.808Z,97562.38
2023-01-25T16:41:49.524Z,97561.88
2023-01-25T16:44:16.492Z,97556.41
2023-01-25T16:46:43.406Z,97565.19
2023-01-25T16:49:18.938Z,97559.56
2023-01-25T16:51:45.635Z,97560.22
2023-01-25T16:54:12.291Z,97562.38
2023-01-25T16:56:38.949Z,97559.91
2023-01-25T16:59:05.781Z,97550.56
2023-01-25T17:01:32.512Z,97554.53
2023-01-25T17:03:59.268Z,97557.56
2023-01-25T17:06:27.620Z,97556.72
2023-01-25T17:09:00.347Z,97562.56
2023-01-25T17:11:27.313Z,97548.91
2023-01-25T17:13:56.955Z,97549.91
2023-01-25T17:16:24.484Z,97546.13
2023-01-25T17:18:58.938Z,97541.91
2023-01-25T17:21:25.988Z,97541.78
2023-01-25T17:23:52.720Z,97541.25
2023-01-25T17:26:20.427Z,97542.94
2023-01-25T17:28:47.368Z,97543.41
2023-01-25T17:31:33.439Z,97532.78
2023-01-25T17:34:04.567Z,97535.63
2023-01-25T17:36:31.302Z,97533.13
2023-01-25T17:39:04.776Z,97530.81
2023-01-25T17:41:31.537Z,97525.34
2023-01-25T17:43:58.379Z,97523.34
2023-01-25T17:46:26.663Z,97522.69
2023-01-25T17:48:53.809Z,97520.34
2023-01-25T17:51:20.891Z,97523.34
2023-01-25T17:53:48.210Z,97510.41
2023-01-25T17:56:14.905Z,97515.69
2023-01-25T17:58:42.680Z,97509.03
2023-01-25T18:01:14.057Z,97518.19
2023-01-25T18:03:41.797Z,97524.31
2023-01-25T18:06:08.499Z,97525.31
2023-01-25T18:08:42.393Z,97515.50
2023-01-25T18:11:09.484Z,97516.84
2023-01-25T18:13:40.423Z,97518.34
2023-01-25T18:16:07.427Z,97514.72
2023-01-25T18:18:34.119Z,97516.69
2023-01-25T18:21:11.670Z,97517.03
2023-01-25T18:23:38.657Z,97506.41
2023-01-25T18:26:05.888Z,97508.41
2023-01-25T18:28:32.791Z,97507.38
2023-01-25T18:31:04.412Z,97502.06
2023-01-25T18:33:31.283Z,97508.38
2023-01-25T18:35:57.916Z,97503.56
2023-01-25T18:38:24.628Z,97508.06
2023-01-25T18:40:51.318Z,97505.41
2023-01-25T18:43:17.959Z,97499.25
2023-01-25T18:45:44.667Z,97501.09
2023-01-25T18:48:12.043Z,97493.13
2023-01-25T18:50:42.012Z,97494.09
2023-01-25T18:53:09.257Z,97482.63
2023-01-25T18:55:36.905Z,97486.63
2023-01-25T18:58:04.344Z,97481.13
2023-01-25T19:00:32.082Z,97480.16
2023-01-25T19:02:59.068Z,97484.47
2023-01-25T19:05:25.956Z,97481.81
2023-01-25T19:07:52.769Z,97470.50
2023-01-25T19:10:19.397Z,97470.16
2023-01-25T19:12:47.036Z,97475.16
2023-01-25T19:15:14.309Z,97474.81
2023-01-25T19:17:41.200Z,97468.34
2023-01-25T19:20:08.581Z,97470.16
2023-01-25T19:22:35.270Z,97474.47
2023-01-25T19:25:01.935Z,97469.84
2023-01-25T19:27:28.558Z,97466.69
2023-01-25T19:29:55.233Z,97477.13
2023-01-25T19:32:21.879Z,97473.09
2023-01-25T19:34:48.551Z,97467.66
2023-01-25T19:37:17.023Z,97468.31
2023-01-25T19:39:44.058Z,97454.72
2023-01-25T19:42:10.727Z,97462.53
2023-01-25T19:44:37.477Z,97462.53
2023-01-25T19:47:04.146Z,97468.66
2023-01-25T19:49:30.770Z,97466.19
2023-01-25T19:51:57.482Z,97465.00
2023-01-25T19:54:24.288Z,97462.19
2023-01-25T19:56:51.056Z,97463.34
2023-01-25T19:59:21.602Z,97460.00
2023-01-25T20:01:48.521Z,97453.66
2023-01-25T20:04:22.378Z,97454.50
2023-01-25T20:06:49.556Z,97462.81
2023-01-25T20:09:16.688Z,97456.16
2023-01-25T20:11:44.334Z,97453.81
2023-01-25T20:14:11.613Z,97452.34
2023-01-25T20:16:38.296Z,97451.56
2023-01-25T20:19:05.736Z,97455.53
2023-01-25T20:21:32.356Z,97447.88
2023-01-25T20:24:02.363Z,97448.59
2023-01-25T20:26:31.089Z,97448.25
2023-01-25T20:28:57.939Z,97446.56
2023-01-25T20:31:29.479Z,97445.09
2023-01-25T20:33:57.860Z,97433.78
2023-01-25T20:36:25.123Z,97439.25
2023-01-25T20:38:51.767Z,97438.94
2023-01-25T20:41:18.727Z,97438.94
2023-01-25T20:43:49.006Z,97435.28
2023-01-25T20:46:16.209Z,97432.97
2023-01-25T20:48:43.147Z,97431.31
2023-01-25T20:51:10.329Z,97430.81
2023-01-25T20:53:37.024Z,97434.44
2023-01-25T20:56:03.818Z,97426.28
2023-01-25T20:58:30.481Z,97424.97
2023-01-25T21:00:57.184Z,97428.47
2023-01-25T21:03:24.141Z,97428.13
2023-01-25T21:05:51.219Z,97420.97
2023-01-25T21:08:19.364Z,97420.00
2023-01-25T21:10:53.513Z,97416.19
2023-01-25T21:13:20.279Z,97419.19
2023-01-25T21:16:10.835Z,97417.34
2023-01-25T21:18:42.160Z,97425.97
2023-01-25T21:21:10.343Z,97423.63
2023-01-25T21:23:38.448Z,97415.84
2023-01-25T21:26:05.507Z,97409.19
2023-01-25T21:28:32.646Z,97414.31
2023-01-25T21:31:07.469Z,97418.66
2023-01-25T21:33:34.172Z,97407.50
2023-01-25T21:36:01.385Z,97401.03
2023-01-25T21:38:28.027Z,97402.84
2023-01-25T21:41:00.471Z,97401.81
2023-01-25T21:43:27.193Z,97399.50
2023-01-25T21:45:53.872Z,97401.34
2023-01-25T21:48:20.508Z,97392.84
2023-01-25T21:50:47.124Z,97395.19
2023-01-25T21:53:13.796Z,97382.91
2023-01-25T21:55:40.462Z,97386.75
2023-01-25T21:58:07.101Z,97391.91
2023-01-25T22:00:33.720Z,97378.59
2023-01-25T22:03:00.348Z,97382.22
2023-01-25T22:05:27.020Z,97381.75
2023-01-25T22:07:53.787Z,97375.59
2023-01-25T22:10:20.480Z,97378.44
2023-01-25T22:12:47.132Z,97375.59
2023-01-25T22:15:13.796Z,97368.47
2023-01-25T22:17:40.481Z,97371.44
2023-01-25T22:20:07.393Z,97369.06
2023-01-25T22:22:34.079Z,97372.03
2023-01-25T22:25:00.690Z,97375.22
2023-01-25T22:27:30.831Z,97373.53
2023-01-25T22:29:57.441Z,97360.94
2023-01-25T22:32:24.080Z,97366.97
2023-01-25T22:34:50.689Z,97371.31
2023-01-25T22:37:17.358Z,97374.28
2023-01-25T22:39:43.977Z,97368.78
2023-01-25T22:42:10.891Z,97367.75
2023-01-25T22:44:37.771Z,97366.91
2023-01-25T22:47:04.436Z,97362.81
2023-01-25T22:49:31.151Z,97366.59
2023-01-25T22:51:57.747Z,97358.84
2023-01-25T22:54:24.410Z,97354.19
2023-01-25T22:56:51.071Z,97351.84
2023-01-25T22:59:17.739Z,97340.69
2023-01-25T23:01:44.341Z,97337.53
2023-01-25T23:04:11.015Z,97337.03
2023-01-25T23:06:37.659Z,97333.38
2023-01-25T23:09:05.340Z,97328.09
2023-01-25T23:11:34.125Z,97320.94
2023-01-25T23:14:01.012Z,97321.28
2023-01-25T23:16:27.746Z,97324.28
2023-01-25T23:18:54.393Z,97316.13
2023-01-25T23:21:22.142Z,97305.28
2023-01-25T23:23:48.963Z,97304.44
2023-01-25T23:26:15.615Z,97302.75
2023-01-25T23:28:42.326Z,97299.84
2023-01-25T23:31:13.192Z,97297.13
2023-01-25T23:33:40.314Z,97295.81
2023-01-25T23:36:10.619Z,97284.97
2023-01-25T23:38:37.848Z,97283.94
2023-01-25T23:41:05.434Z,97283.59
2023-01-25T23:43:32.327Z,97280.28
2023-01-25T23:45:59.020Z,97276.28
2023-01-25T23:48:25.817Z,97268.81
2023-01-25T23:50:52.647Z,97268.69
2023-01-25T23:53:19.444Z,97258.31
2023-01-25T23:56:02.556Z,97256.47
2023-01-25T23:58:29.626Z,97250.97
